Time,TemperatureF,DewpointF,PressureIn,WindDirection,WindDirectionDegrees,WindSpeedMPH,WindSpeedGustMPH,Humidity,HourlyPrecipIn,Conditions,Clouds,dailyrainin,SoftwareType,DateUTC
2013-05-17 00:02:00,56.7,30.0,29.62,North,0,0.0,0.0,36,0.00,,---,0.00,VWS V14.01,2013-05-17 07:02:00,
2013-05-17 00:08:00,56.5,29.9,29.62,North,0,0.0,0.0,36,0.00,,---,0.00,VWS V14.01,2013-05-17 07:08:00,
2013-05-17 00:14:00,56.3,29.7,29.62,North,0,0.0,0.0,36,0.00,,---,0.00,VWS V14.01,2013-05-17 07:14:00,
2013-05-17 00:19:00,56.3,29.7,29.62,North,0,0.0,0.0,36,0.00,,---,0.00,VWS V14.01,2013-05-17 07:19:00,
2013-05-17 00:24:00,56.1,29.5,29.62,North,0,0.0,0.0,36,0.00,,---,0.00,VWS V14.01,2013-05-17 07:24:00,
2013-05-17 00:30:00,56.1,29.5,29.65,North,0,0.0,0.0,36,0.00,,---,0.00,VWS V14.01,2013-05-17 07:30:00,
2013-05-17 00:35:00,55.9,29.4,29.65,North,0,0.0,0.0,36,0.00,,---,0.00,VWS V14.01,2013-05-17 07:35:00,
2013-05-17 00:41:00,55.9,29.4,29.65,North,0,0.0,0.0,36,0.00,,---,0.00,VWS V14.01,2013-05-17 07:41:00,
2013-05-17 00:46:00,55.8,29.2,29.65,North,0,0.0,0.0,36,0.00,,---,0.00,VWS V14.01,2013-05-17 07:46:00,
2013-05-17 00:52:00,55.8,29.2,29.65,North,0,0.0,0.0,36,0.00,,---,0.00,VWS V14.01,2013-05-17 07:52:00,
2013-05-17 00:57:00,55.6,29.1,29.65,North,0,0.0,0.0,36,0.00,,---,0.00,VWS V14.01,2013-05-17 07:57:00,
2013-05-17 01:02:00,55.6,29.1,29.65,North,0,0.0,0.0,36,0.00,,---,0.00,VWS V14.01,2013-05-17 08:02:00,
2013-05-17 01:07:00,55.4,29.6,29.65,North,0,0.0,0.0,37,0.00,,---,0.00,VWS V14.01,2013-05-17 08:07:00,
2013-05-17 01:12:00,55.2,29.4,29.65,North,0,0.0,0.0,37,0.00,,---,0.00,VWS V14.01,2013-05-17 08:12:00,
2013-05-17 01:18:00,55.0,29.3,29.62,North,0,0.0,0.0,37,0.00,,---,0.00,VWS V14.01,2013-05-17 08:18:00,
2013-05-17 01:24:00,54.9,29.1,29.62,North,0,0.0,0.0,37,0.00,,---,0.00,VWS V14.01,2013-05-17 08:24:00,
2013-05-17 01:29:00,54.9,29.1,29.65,North,0,0.0,0.0,37,0.00,,---,0.00,VWS V14.01,2013-05-17 08:29:00,
2013-05-17 01:35:00,54.9,29.1,29.65,North,0,0.0,0.0,37,0.00,,---,0.00,VWS V14.01,2013-05-17 08:35:00,
2013-05-17 01:40:00,54.7,28.9,29.65,North,0,0.0,0.0,37,0.00,,---,0.00,VWS V14.01,2013-05-17 08:40:00,
2013-05-17 01:45:00,54.7,28.9,29.65,North,0,0.0,0.0,37,0.00,,---,0.00,VWS V14.01,2013-05-17 08:45:00,
2013-05-17 01:50:00,54.5,28.8,29.65,North,0,0.0,0.0,37,0.00,,---,0.00,VWS V14.01,2013-05-17 08:50:00,
2013-05-17 01:55:00,54.5,28.8,29.65,North,0,0.0,0.0,37,0.00,,---,0.00,VWS V14.01,2013-05-17 08:55:00,
2013-05-17 02:01:00,54.5,28.8,29.65,North,0,0.0,0.0,37,0.00,,---,0.00,VWS V14.01,2013-05-17 09:01:00,
2013-05-17 02:06:00,54.3,28.6,29.65,North,0,0.0,0.0,37,0.00,,---,0.00,VWS V14.01,2013-05-17 09:06:00,
2013-05-17 02:12:00,54.3,28.6,29.65,North,0,0.0,0.0,37,0.00,,---,0.00,VWS V14.01,2013-05-17 09:12:00,
2013-05-17 02:17:00,54.3,28.6,29.65,North,0,0.0,0.0,37,0.00,,---,0.00,VWS V14.01,2013-05-17 09:17:00,
2013-05-17 02:23:00,54.1,29.1,29.65,North,0,0.0,0.0,38,0.00,,---,0.00,VWS V14.01,2013-05-17 09:23:00,
2013-05-17 02:29:00,54.1,29.1,29.65,North,0,0.0,0.0,38,0.00,,---,0.00,VWS V14.01,2013-05-17 09:29:00,
2013-05-17 02:34:00,54.0,29.0,29.65,North,0,0.0,0.0,38,0.00,,---,0.00,VWS V14.01,2013-05-17 09:34:00,
2013-05-17 02:40:00,54.0,29.0,29.65,North,0,0.0,0.0,38,0.00,,---,0.00,VWS V14.01,2013-05-17 09:40:00,
2013-05-17 02:45:00,54.0,29.6,29.65,North,0,0.0,0.0,39,0.00,,---,0.00,VWS V14.01,2013-05-17 09:45:00,
2013-05-17 02:51:00,53.8,30.0,29.65,North,0,0.0,0.0,40,0.00,,---,0.00,VWS V14.01,2013-05-17 09:51:00,
2013-05-17 02:56:00,53.6,30.5,29.65,North,0,0.0,0.0,41,0.00,,---,0.00,VWS V14.01,2013-05-17 09:56:00,
2013-05-17 03:01:00,53.2,31.9,29.65,North,0,0.0,0.0,44,0.00,,---,0.00,VWS V14.01,2013-05-17 10:01:00,
2013-05-17 03:06:00,53.1,32.3,29.65,North,0,0.0,0.0,45,0.00,,---,0.00,VWS V14.01,2013-05-17 10:06:00,
2013-05-17 03:12:00,52.9,33.2,29.65,North,0,0.0,0.0,47,0.00,,---,0.00,VWS V14.01,2013-05-17 10:12:00,
2013-05-17 03:18:00,52.7,33.6,29.65,North,0,0.0,0.0,48,0.00,,---,0.00,VWS V14.01,2013-05-17 10:18:00,
2013-05-17 03:23:00,52.5,33.9,29.65,North,0,0.0,0.0,49,0.00,,---,0.00,VWS V14.01,2013-05-17 10:23:00,
2013-05-17 03:28:00,52.5,34.4,29.65,North,0,0.0,0.0,50,0.00,,---,0.00,VWS V14.01,2013-05-17 10:28:00,
2013-05-17 03:34:00,52.5,34.9,29.65,North,0,0.0,0.0,51,0.00,,---,0.00,VWS V14.01,2013-05-17 10:34:00,
2013-05-17 03:39:00,52.5,35.4,29.65,North,0,0.0,0.0,52,0.00,,---,0.00,VWS V14.01,2013-05-17 10:39:00,
2013-05-17 03:44:00,52.5,35.9,29.65,North,0,0.0,0.0,53,0.00,,---,0.00,VWS V14.01,2013-05-17 10:44:00,
2013-05-17 03:49:00,52.5,36.4,29.65,North,0,0.0,0.0,54,0.00,,---,0.00,VWS V14.01,2013-05-17 10:49:00,
2013-05-17 03:54:00,52.5,36.4,29.65,North,0,0.0,0.0,54,0.00,,---,0.00,VWS V14.01,2013-05-17 10:54:00,
2013-05-17 04:00:00,52.5,36.4,29.65,North,0,0.0,0.0,54,0.00,,---,0.00,VWS V14.01,2013-05-17 11:00:00,
2013-05-17 04:05:00,52.5,36.4,29.65,North,0,0.0,0.0,54,0.00,,---,0.00,VWS V14.01,2013-05-17 11:05:00,
2013-05-17 04:11:00,52.7,36.5,29.65,North,0,0.0,0.0,54,0.00,,---,0.00,VWS V14.01,2013-05-17 11:11:00,
2013-05-17 04:16:00,52.7,36.1,29.65,North,0,0.0,0.0,53,0.00,,---,0.00,VWS V14.01,2013-05-17 11:16:00,
2013-05-17 04:22:00,52.7,36.5,29.65,North,0,0.0,0.0,54,0.00,,---,0.00,VWS V14.01,2013-05-17 11:22:00,
2013-05-17 04:28:00,52.7,36.5,29.65,North,0,0.0,0.0,54,0.00,,---,0.00,VWS V14.01,2013-05-17 11:28:00,
2013-05-17 04:34:00,52.7,36.5,29.65,North,0,0.0,0.0,54,0.00,,---,0.00,VWS V14.01,2013-05-17 11:34:00,
2013-05-17 04:40:00,52.7,36.5,29.65,North,0,0.0,0.0,54,0.00,,---,0.00,VWS V14.01,2013-05-17 11:40:00,
2013-05-17 04:45:00,52.7,36.5,29.65,North,0,0.0,0.0,54,0.00,,---,0.00,VWS V14.01,2013-05-17 11:45:00,
2013-05-17 04:50:00,52.7,37.0,29.65,North,0,0.0,0.0,55,0.00,,---,0.00,VWS V14.01,2013-05-17 11:50:00,
2013-05-17 04:55:00,52.7,37.0,29.65,North,0,0.0,0.0,55,0.00,,---,0.00,VWS V14.01,2013-05-17 11:55:00,
2013-05-17 05:00:00,52.7,36.5,29.65,North,0,0.0,0.0,54,0.00,,---,0.00,VWS V14.01,2013-05-17 12:00:00,
2013-05-17 05:05:00,52.5,36.4,29.65,North,0,0.0,0.0,54,0.00,,---,0.00,VWS V14.01,2013-05-17 12:05:00,
2013-05-17 05:11:00,52.5,36.4,29.65,North,0,0.0,0.0,54,0.00,,---,0.00,VWS V14.01,2013-05-17 12:11:00,
2013-05-17 05:16:00,52.5,35.9,29.65,North,0,0.0,0.0,53,0.00,,---,0.00,VWS V14.01,2013-05-17 12:16:00,
2013-05-17 05:21:00,52.5,35.4,29.65,North,0,0.0,0.0,52,0.00,,---,0.00,VWS V14.01,2013-05-17 12:21:00,
2013-05-17 05:27:00,52.3,34.3,29.65,North,0,0.0,0.0,50,0.00,,---,0.00,VWS V14.01,2013-05-17 12:27:00,
2013-05-17 05:33:00,52.3,34.3,29.65,North,0,0.0,0.0,50,0.00,,---,0.00,VWS V14.01,2013-05-17 12:33:00,
2013-05-17 05:39:00,52.3,33.8,29.65,North,0,0.0,0.0,49,0.00,,---,0.00,VWS V14.01,2013-05-17 12:39:00,
2013-05-17 05:45:00,52.3,33.2,29.65,North,0,0.0,0.0,48,0.00,,---,0.00,VWS V14.01,2013-05-17 12:45:00,
2013-05-17 05:50:00,52.3,33.2,29.65,North,0,0.0,0.0,48,0.00,,---,0.00,VWS V14.01,2013-05-17 12:50:00,
2013-05-17 05:56:00,52.3,33.2,29.65,North,0,0.0,0.0,48,0.00,,---,0.00,VWS V14.01,2013-05-17 12:56:00,
2013-05-17 06:01:00,52.3,33.2,29.65,North,0,0.0,0.0,48,0.00,,---,0.00,VWS V14.01,2013-05-17 13:01:00,
2013-05-17 06:06:00,52.3,33.2,29.65,North,0,0.0,0.0,48,0.00,,---,0.00,VWS V14.01,2013-05-17 13:06:00,
2013-05-17 06:11:00,52.5,33.4,29.65,North,0,0.0,0.0,48,0.00,,---,0.00,VWS V14.01,2013-05-17 13:11:00,
2013-05-17 06:16:00,52.5,33.4,29.65,North,0,0.0,0.0,48,0.00,,---,0.00,VWS V14.01,2013-05-17 13:16:00,
2013-05-17 06:22:00,52.7,33.0,29.65,North,0,0.0,0.0,47,0.00,,---,0.00,VWS V14.01,2013-05-17 13:22:00,
2013-05-17 06:28:00,52.7,33.0,29.65,North,0,0.0,0.0,47,0.00,,---,0.00,VWS V14.01,2013-05-17 13:28:00,
2013-05-17 06:33:00,52.7,32.5,29.65,North,0,0.0,0.0,46,0.00,,---,0.00,VWS V14.01,2013-05-17 13:33:00,
2013-05-17 06:39:00,52.7,32.5,29.65,North,0,0.0,0.0,46,0.00,,---,0.00,VWS V14.01,2013-05-17 13:39:00,
2013-05-17 06:44:00,52.9,32.7,29.65,North,0,0.0,0.0,46,0.00,,---,0.00,VWS V14.01,2013-05-17 13:44:00,
2013-05-17 06:49:00,52.9,32.7,29.65,North,0,0.0,0.0,46,0.00,,---,0.00,VWS V14.01,2013-05-17 13:49:00,
2013-05-17 06:54:00,52.9,32.7,29.65,North,0,0.0,0.0,46,0.00,,---,0.00,VWS V14.01,2013-05-17 13:54:00,
2013-05-17 06:59:00,52.9,32.7,29.65,North,0,0.0,0.0,46,0.00,,---,0.00,VWS V14.01,2013-05-17 13:59:00,
2013-05-17 07:05:00,52.9,32.7,29.65,North,0,0.0,0.0,46,0.00,,---,0.00,VWS V14.01,2013-05-17 14:05:00,
2013-05-17 07:10:00,53.1,32.8,29.65,North,0,0.0,0.0,46,0.00,,---,0.00,VWS V14.01,2013-05-17 14:10:00,
2013-05-17 07:15:00,53.1,32.8,29.65,North,0,0.0,0.0,46,0.00,,---,0.00,VWS V14.01,2013-05-17 14:15:00,
2013-05-17 07:20:00,53.1,32.8,29.65,North,0,0.0,0.0,46,0.04,,---,0.04,VWS V14.01,2013-05-17 14:20:00,
2013-05-17 07:26:00,53.1,33.4,29.65,North,0,0.0,0.0,47,0.04,,---,0.04,VWS V14.01,2013-05-17 14:26:00,
2013-05-17 07:32:00,53.1,33.4,29.65,North,0,0.0,0.0,47,0.04,,---,0.04,VWS V14.01,2013-05-17 14:32:00,
2013-05-17 07:38:00,53.1,33.4,29.65,North,0,0.0,0.0,47,0.04,,---,0.04,VWS V14.01,2013-05-17 14:38:00,
2013-05-17 07:44:00,53.1,33.4,29.68,North,0,0.0,0.0,47,0.04,,---,0.04,VWS V14.01,2013-05-17 14:44:00,
2013-05-17 07:49:00,53.2,33.0,29.68,North,0,0.0,0.0,46,0.04,,---,0.04,VWS V14.01,2013-05-17 14:49:00,
2013-05-17 07:55:00,53.4,33.2,29.68,North,0,0.0,0.0,46,0.04,,---,0.04,VWS V14.01,2013-05-17 14:55:00,
2013-05-17 08:00:00,53.6,32.2,29.68,North,0,0.0,0.0,44,0.04,,---,0.04,VWS V14.01,2013-05-17 15:00:00,
2013-05-17 08:05:00,54.0,33.1,29.68,North,0,0.0,0.0,45,0.04,,---,0.04,VWS V14.01,2013-05-17 15:05:00,
2013-05-17 08:10:00,54.1,32.7,29.68,North,0,0.0,0.0,44,0.04,,---,0.04,VWS V14.01,2013-05-17 15:10:00,
2013-05-17 08:15:00,54.3,32.3,29.68,North,0,0.0,0.0,43,0.04,,---,0.04,VWS V14.01,2013-05-17 15:15:00,
2013-05-17 08:21:00,54.5,32.5,29.68,North,0,0.0,0.0,43,0.00,,---,0.04,VWS V14.01,2013-05-17 15:21:00,
2013-05-17 08:26:00,54.7,31.5,29.68,North,0,0.0,0.0,41,0.00,,---,0.04,VWS V14.01,2013-05-17 15:26:00,
2013-05-17 08:31:00,54.9,31.0,29.68,North,0,0.0,0.0,40,0.00,,---,0.04,VWS V14.01,2013-05-17 15:31:00,
2013-05-17 08:36:00,54.9,31.0,29.68,North,0,0.0,0.0,40,0.00,,---,0.04,VWS V14.01,2013-05-17 15:36:00,
2013-05-17 08:41:00,55.0,31.2,29.68,North,0,0.0,0.0,40,0.00,,---,0.04,VWS V14.01,2013-05-17 15:41:00,
2013-05-17 08:47:00,54.9,30.4,29.68,North,0,0.0,0.0,39,0.00,,---,0.04,VWS V14.01,2013-05-17 15:47:00,
2013-05-17 08:52:00,54.9,31.0,29.68,North,0,0.0,0.0,40,0.00,,---,0.04,VWS V14.01,2013-05-17 15:52:00,
2013-05-17 08:57:00,55.0,31.2,29.68,North,0,0.0,0.0,40,0.00,,---,0.04,VWS V14.01,2013-05-17 15:57:00,
2013-05-17 09:02:00,55.2,31.3,29.68,North,0,0.0,0.0,40,0.00,,---,0.04,VWS V14.01,2013-05-17 16:02:00,
2013-05-17 09:08:00,55.6,31.0,29.68,North,0,0.0,0.0,39,0.00,,---,0.04,VWS V14.01,2013-05-17 16:08:00,
2013-05-17 09:14:00,55.6,31.0,29.68,North,0,0.0,0.0,39,0.00,,---,0.04,VWS V14.01,2013-05-17 16:14:00,
2013-05-17 09:19:00,55.8,31.2,29.68,North,0,0.0,0.0,39,0.00,,---,0.04,VWS V14.01,2013-05-17 16:19:00,
2013-05-17 09:25:00,55.9,30.1,29.68,North,0,0.0,0.0,37,0.00,,---,0.04,VWS V14.01,2013-05-17 16:25:00,
2013-05-17 09:30:00,55.9,30.1,29.68,North,0,0.0,0.0,37,0.00,,---,0.04,VWS V14.01,2013-05-17 16:30:00,
2013-05-17 09:35:00,55.9,30.1,29.68,North,0,0.0,0.0,37,0.00,,---,0.04,VWS V14.01,2013-05-17 16:35:00,
2013-05-17 09:40:00,55.9,30.1,29.68,North,0,0.0,0.0,37,0.00,,---,0.04,VWS V14.01,2013-05-17 16:40:00,
2013-05-17 09:45:00,55.9,30.1,29.68,North,0,0.0,0.0,37,0.00,,---,0.04,VWS V14.01,2013-05-17 16:45:00,
2013-05-17 09:51:00,56.1,29.5,29.68,North,0,0.0,0.0,36,0.00,,---,0.04,VWS V14.01,2013-05-17 16:51:00,
2013-05-17 09:57:00,56.1,29.5,29.68,North,0,0.0,0.0,36,0.00,,---,0.04,VWS V14.01,2013-05-17 16:57:00,
2013-05-17 10:02:00,56.5,29.9,29.68,North,0,0.0,0.0,36,0.00,,---,0.04,VWS V14.01,2013-05-17 17:02:00,
2013-05-17 10:08:00,56.8,30.2,29.68,North,0,0.0,0.0,36,0.00,,---,0.04,VWS V14.01,2013-05-17 17:08:00,
2013-05-17 10:14:00,57.2,29.8,29.68,North,0,0.0,0.0,35,0.00,,---,0.04,VWS V14.01,2013-05-17 17:14:00,
2013-05-17 10:20:00,57.2,29.8,29.68,North,0,0.0,0.0,35,0.00,,---,0.04,VWS V14.01,2013-05-17 17:20:00,
2013-05-17 10:25:00,57.2,29.8,29.68,North,0,0.0,0.0,35,0.00,,---,0.04,VWS V14.01,2013-05-17 17:25:00,
2013-05-17 10:31:00,57.7,28.1,29.68,North,0,0.0,0.0,32,0.00,,---,0.04,VWS V14.01,2013-05-17 17:31:00,
2013-05-17 10:37:00,57.9,26.7,29.68,North,0,0.0,0.0,30,0.00,,---,0.04,VWS V14.01,2013-05-17 17:37:00,
2013-05-17 10:43:00,57.9,28.3,29.68,North,0,0.0,0.0,32,0.00,,---,0.04,VWS V14.01,2013-05-17 17:43:00,
2013-05-17 10:49:00,58.1,26.9,29.68,North,0,0.0,0.0,30,0.00,,---,0.04,VWS V14.01,2013-05-17 17:49:00,
2013-05-17 10:54:00,57.7,25.7,29.68,North,0,0.0,0.0,29,0.00,,---,0.04,VWS V14.01,2013-05-17 17:54:00,
2013-05-17 11:00:00,57.2,26.1,29.68,North,0,0.0,0.0,30,0.00,,---,0.04,VWS V14.01,2013-05-17 18:00:00,
2013-05-17 11:05:00,57.2,26.9,29.68,North,0,0.0,0.0,31,0.00,,---,0.04,VWS V14.01,2013-05-17 18:05:00,
2013-05-17 11:10:00,57.0,27.5,29.68,North,0,0.0,0.0,32,0.00,,---,0.04,VWS V14.01,2013-05-17 18:10:00,
2013-05-17 11:15:00,56.8,28.1,29.68,North,0,0.0,0.0,33,0.00,,---,0.04,VWS V14.01,2013-05-17 18:15:00,
2013-05-17 11:21:00,56.8,28.8,29.68,North,0,0.0,0.0,34,0.00,,---,0.04,VWS V14.01,2013-05-17 18:21:00,
2013-05-17 11:27:00,56.8,28.1,29.68,North,0,0.0,0.0,33,0.00,,---,0.04,VWS V14.01,2013-05-17 18:27:00,
2013-05-17 11:32:00,56.8,28.8,29.68,North,0,0.0,0.0,34,0.00,,---,0.04,VWS V14.01,2013-05-17 18:32:00,
2013-05-17 11:37:00,56.8,28.8,29.68,North,0,0.0,0.0,34,0.00,,---,0.04,VWS V14.01,2013-05-17 18:37:00,
2013-05-17 11:43:00,56.8,28.8,29.68,North,0,0.0,0.0,34,0.00,,---,0.04,VWS V14.01,2013-05-17 18:43:00,
2013-05-17 11:49:00,57.0,29.7,29.68,North,0,0.0,0.0,35,0.00,,---,0.04,VWS V14.01,2013-05-17 18:49:00,
2013-05-17 11:54:00,57.4,29.3,29.68,North,0,0.0,0.0,34,0.00,,---,0.04,VWS V14.01,2013-05-17 18:54:00,
2013-05-17 12:00:00,57.6,29.4,29.68,North,0,0.0,0.0,34,0.00,,---,0.04,VWS V14.01,2013-05-17 19:00:00,
2013-05-17 12:05:00,57.4,27.0,29.68,North,0,0.0,0.0,31,0.00,,---,0.04,VWS V14.01,2013-05-17 19:05:00,
2013-05-17 12:10:00,57.6,30.1,29.68,North,0,0.0,0.0,35,0.00,,---,0.04,VWS V14.01,2013-05-17 19:10:00,
2013-05-17 12:16:00,57.9,30.5,29.68,North,0,0.0,0.0,35,0.00,,---,0.04,VWS V14.01,2013-05-17 19:16:00,
2013-05-17 12:21:00,58.3,31.5,29.68,North,0,0.0,0.0,36,0.00,,---,0.04,VWS V14.01,2013-05-17 19:21:00,
2013-05-17 12:26:00,58.3,30.8,29.68,North,0,0.0,0.0,35,0.00,,---,0.04,VWS V14.01,2013-05-17 19:26:00,
2013-05-17 12:31:00,57.7,31.0,29.68,North,0,0.0,0.0,36,0.00,,---,0.04,VWS V14.01,2013-05-17 19:31:00,
2013-05-17 12:37:00,57.7,31.7,29.68,North,0,0.0,0.0,37,0.00,,---,0.04,VWS V14.01,2013-05-17 19:37:00,
2013-05-17 12:43:00,57.6,30.8,29.68,North,0,0.0,0.0,36,0.00,,---,0.04,VWS V14.01,2013-05-17 19:43:00,
2013-05-17 12:48:00,57.2,31.2,29.68,North,0,0.0,0.0,37,0.00,,---,0.04,VWS V14.01,2013-05-17 19:48:00,
2013-05-17 12:53:00,57.6,31.5,29.68,North,0,0.0,0.0,37,0.00,,---,0.04,VWS V14.01,2013-05-17 19:53:00,
2013-05-17 12:59:00,57.7,31.7,29.68,North,0,0.0,0.0,37,0.00,,---,0.04,VWS V14.01,2013-05-17 19:59:00,
2013-05-17 13:04:00,57.9,31.1,29.68,North,0,0.0,0.0,36,0.00,,---,0.04,VWS V14.01,2013-05-17 20:04:00,
2013-05-17 13:10:00,57.9,31.1,29.68,North,0,0.0,0.0,36,0.00,,---,0.04,VWS V14.01,2013-05-17 20:10:00,
2013-05-17 13:15:00,58.3,30.8,29.68,North,0,0.0,0.0,35,0.00,,---,0.04,VWS V14.01,2013-05-17 20:15:00,
2013-05-17 13:21:00,57.9,30.5,29.68,North,0,0.0,0.0,35,0.00,,---,0.04,VWS V14.01,2013-05-17 20:21:00,
2013-05-17 13:27:00,57.6,30.1,29.68,North,0,0.0,0.0,35,0.00,,---,0.04,VWS V14.01,2013-05-17 20:27:00,
2013-05-17 13:33:00,57.9,30.5,29.68,North,0,0.0,0.0,35,0.00,,---,0.04,VWS V14.01,2013-05-17 20:33:00,
2013-05-17 13:39:00,57.4,30.0,29.68,North,0,0.0,0.0,35,0.00,,---,0.04,VWS V14.01,2013-05-17 20:39:00,
2013-05-17 13:45:00,57.2,29.8,29.68,North,0,0.0,0.0,35,0.00,,---,0.04,VWS V14.01,2013-05-17 20:45:00,
2013-05-17 13:50:00,57.2,29.8,29.68,North,0,0.0,0.0,35,0.00,,---,0.04,VWS V14.01,2013-05-17 20:50:00,
2013-05-17 13:56:00,57.0,30.4,29.68,North,0,0.0,0.0,36,0.00,,---,0.04,VWS V14.01,2013-05-17 20:56:00,
2013-05-17 14:01:00,57.2,29.8,29.68,North,0,0.0,0.0,35,0.00,,---,0.04,VWS V14.01,2013-05-17 21:01:00,
2013-05-17 14:06:00,57.9,30.5,29.68,North,0,0.0,0.0,35,0.00,,---,0.04,VWS V14.01,2013-05-17 21:06:00,
2013-05-17 14:12:00,58.1,30.6,29.68,North,0,0.0,0.0,35,0.00,,---,0.04,VWS V14.01,2013-05-17 21:12:00,
2013-05-17 14:18:00,58.5,30.9,29.68,North,0,0.0,0.0,35,0.00,,---,0.04,VWS V14.01,2013-05-17 21:18:00,
2013-05-17 14:23:00,58.6,31.1,29.68,North,0,0.0,0.0,35,0.00,,---,0.04,VWS V14.01,2013-05-17 21:23:00,
2013-05-17 14:29:00,59.4,30.3,29.68,North,0,0.0,0.0,33,0.00,,---,0.04,VWS V14.01,2013-05-17 21:29:00,
2013-05-17 14:34:00,59.5,30.4,29.68,North,0,0.0,0.0,33,0.00,,---,0.04,VWS V14.01,2013-05-17 21:34:00,
2013-05-17 14:39:00,59.4,30.3,29.68,North,0,0.0,0.0,33,0.00,,---,0.04,VWS V14.01,2013-05-17 21:39:00,
2013-05-17 14:44:00,59.2,30.1,29.68,North,0,0.0,0.0,33,0.00,,---,0.04,VWS V14.01,2013-05-17 21:44:00,
2013-05-17 14:49:00,59.4,30.3,29.68,North,0,0.0,0.0,33,0.00,,---,0.04,VWS V14.01,2013-05-17 21:49:00,
2013-05-17 14:55:00,59.2,29.4,29.68,North,0,0.0,0.0,32,0.00,,---,0.04,VWS V14.01,2013-05-17 21:55:00,
2013-05-17 15:01:00,59.5,29.7,29.68,North,0,0.0,0.0,32,0.00,,---,0.04,VWS V14.01,2013-05-17 22:01:00,
2013-05-17 15:06:00,59.7,29.8,29.68,North,0,0.0,0.0,32,0.00,,---,0.04,VWS V14.01,2013-05-17 22:06:00,
2013-05-17 15:12:00,59.4,29.5,29.68,North,0,0.0,0.0,32,0.00,,---,0.04,VWS V14.01,2013-05-17 22:12:00,
2013-05-17 15:17:00,59.2,29.4,29.68,North,0,0.0,0.0,32,0.00,,---,0.04,VWS V14.01,2013-05-17 22:17:00,
2013-05-17 15:22:00,58.8,30.5,29.68,North,0,0.0,0.0,34,0.00,,---,0.04,VWS V14.01,2013-05-17 22:22:00,
2013-05-17 15:27:00,58.6,30.4,29.68,North,0,0.0,0.0,34,0.00,,---,0.04,VWS V14.01,2013-05-17 22:27:00,
2013-05-17 15:32:00,58.6,30.4,29.68,North,0,0.0,0.0,34,0.00,,---,0.04,VWS V14.01,2013-05-17 22:32:00,
2013-05-17 15:38:00,58.5,30.9,29.68,North,0,0.0,0.0,35,0.00,,---,0.04,VWS V14.01,2013-05-17 22:38:00,
2013-05-17 15:43:00,58.5,30.9,29.68,North,0,0.0,0.0,35,0.00,,---,0.04,VWS V14.01,2013-05-17 22:43:00,
2013-05-17 15:49:00,58.3,30.8,29.68,North,0,0.0,0.0,35,0.00,,---,0.04,VWS V14.01,2013-05-17 22:49:00,
2013-05-17 15:55:00,58.3,30.8,29.68,North,0,0.0,0.0,35,0.00,,---,0.04,VWS V14.01,2013-05-17 22:55:00,
2013-05-17 16:00:00,58.6,31.1,29.68,North,0,0.0,0.0,35,0.00,,---,0.04,VWS V14.01,2013-05-17 23:00:00,
2013-05-17 16:06:00,59.0,30.7,29.68,North,0,0.0,0.0,34,0.00,,---,0.04,VWS V14.01,2013-05-17 23:06:00,
2013-05-17 16:11:00,59.5,29.7,29.68,North,0,0.0,0.0,32,0.00,,---,0.04,VWS V14.01,2013-05-17 23:11:00,
2013-05-17 16:17:00,59.5,29.7,29.68,North,0,0.0,0.0,32,0.00,,---,0.04,VWS V14.01,2013-05-17 23:17:00,
2013-05-17 16:22:00,59.5,29.7,29.68,North,0,0.0,0.0,32,0.00,,---,0.04,VWS V14.01,2013-05-17 23:22:00,
2013-05-17 16:28:00,59.7,29.8,29.68,North,0,0.0,0.0,32,0.00,,---,0.04,VWS V14.01,2013-05-17 23:28:00,
2013-05-17 16:33:00,59.7,28.3,29.68,North,0,0.0,0.0,30,0.00,,---,0.04,VWS V14.01,2013-05-17 23:33:00,
2013-05-17 16:38:00,59.9,28.4,29.68,North,0,0.0,0.0,30,0.00,,---,0.04,VWS V14.01,2013-05-17 23:38:00,
2013-05-17 16:44:00,59.9,28.4,29.68,North,0,0.0,0.0,30,0.00,,---,0.04,VWS V14.01,2013-05-17 23:44:00,
2013-05-17 16:50:00,60.1,27.7,29.68,North,0,0.0,0.0,29,0.00,,---,0.04,VWS V14.01,2013-05-17 23:50:00,
2013-05-17 16:56:00,60.3,27.0,29.68,North,0,0.0,0.0,28,0.00,,---,0.04,VWS V14.01,2013-05-17 23:56:00,
2013-05-17 17:02:00,60.4,26.3,29.68,North,0,0.0,0.0,27,0.00,,---,0.04,VWS V14.01,2013-05-18 00:02:00,
2013-05-17 17:07:00,60.6,26.5,29.68,North,0,0.0,0.0,27,0.00,,---,0.04,VWS V14.01,2013-05-18 00:07:00,
2013-05-17 17:12:00,61.0,25.9,29.68,North,0,0.0,0.0,26,0.00,,---,0.04,VWS V14.01,2013-05-18 00:12:00,
2013-05-17 17:18:00,61.3,26.2,29.68,North,0,0.0,0.0,26,0.00,,---,0.04,VWS V14.01,2013-05-18 00:18:00,
2013-05-17 17:23:00,61.9,25.7,29.68,North,0,0.0,0.0,25,0.00,,---,0.04,VWS V14.01,2013-05-18 00:23:00,
2013-05-17 17:28:00,62.2,26.0,29.68,North,0,0.0,0.0,25,0.00,,---,0.04,VWS V14.01,2013-05-18 00:28:00,
2013-05-17 17:34:00,63.0,26.6,29.68,North,0,0.0,0.0,25,0.00,,---,0.04,VWS V14.01,2013-05-18 00:34:00,
2013-05-17 17:40:00,62.6,26.3,29.68,North,0,0.0,0.0,25,0.00,,---,0.04,VWS V14.01,2013-05-18 00:40:00,
2013-05-17 17:46:00,61.3,25.2,29.68,North,0,0.0,0.0,25,0.00,,---,0.04,VWS V14.01,2013-05-18 00:46:00,
2013-05-17 17:52:00,60.6,25.6,29.68,North,0,0.0,0.0,26,0.00,,---,0.04,VWS V14.01,2013-05-18 00:52:00,
2013-05-17 17:57:00,60.6,25.6,29.68,North,0,0.0,0.0,26,0.00,,---,0.04,VWS V14.01,2013-05-18 00:57:00,
2013-05-17 18:03:00,60.4,25.4,29.68,North,0,0.0,0.0,26,0.00,,---,0.04,VWS V14.01,2013-05-18 01:03:00,
2013-05-17 18:08:00,60.6,25.6,29.68,North,0,0.0,0.0,26,0.00,,---,0.04,VWS V14.01,2013-05-18 01:08:00,
2013-05-17 18:13:00,60.6,25.6,29.68,North,0,0.0,0.0,26,0.00,,---,0.04,VWS V14.01,2013-05-18 01:13:00,
2013-05-17 18:18:00,60.6,25.6,29.68,North,0,0.0,0.0,26,0.00,,---,0.04,VWS V14.01,2013-05-18 01:18:00,
2013-05-17 18:24:00,61.0,25.9,29.68,North,0,0.0,0.0,26,0.00,,---,0.04,VWS V14.01,2013-05-18 01:24:00,
2013-05-17 18:30:00,61.7,25.5,29.68,North,0,0.0,0.0,25,0.00,,---,0.04,VWS V14.01,2013-05-18 01:30:00,
2013-05-17 18:35:00,62.2,26.0,29.68,North,0,0.0,0.0,25,0.00,,---,0.04,VWS V14.01,2013-05-18 01:35:00,
2013-05-17 18:40:00,61.7,25.5,29.68,North,0,0.0,0.0,25,0.00,,---,0.04,VWS V14.01,2013-05-18 01:40:00,
2013-05-17 18:46:00,61.0,24.9,29.68,North,0,0.0,0.0,25,0.00,,---,0.04,VWS V14.01,2013-05-18 01:46:00,
2013-05-17 18:52:00,60.6,24.6,29.68,North,0,0.0,0.0,25,0.00,,---,0.04,VWS V14.01,2013-05-18 01:52:00,
2013-05-17 18:57:00,60.3,24.3,29.68,North,0,0.0,0.0,25,0.00,,---,0.04,VWS V14.01,2013-05-18 01:57:00,
2013-05-17 19:03:00,60.1,24.2,29.68,North,0,0.0,0.0,25,0.00,,---,0.04,VWS V14.01,2013-05-18 02:03:00,
2013-05-17 19:08:00,59.9,24.0,29.68,North,0,0.0,0.0,25,0.00,,---,0.04,VWS V14.01,2013-05-18 02:08:00,
2013-05-17 19:14:00,60.1,24.2,29.68,North,0,0.0,0.0,25,0.00,,---,0.04,VWS V14.01,2013-05-18 02:14:00,
2013-05-17 19:19:00,60.4,25.4,29.68,North,0,0.0,0.0,26,0.00,,---,0.04,VWS V14.01,2013-05-18 02:19:00,
2013-05-17 19:24:00,60.3,25.3,29.68,North,0,0.0,0.0,26,0.00,,---,0.04,VWS V14.01,2013-05-18 02:24:00,
2013-05-17 19:29:00,59.9,25.0,29.68,North,0,0.0,0.0,26,0.00,,---,0.04,VWS V14.01,2013-05-18 02:29:00,
2013-05-17 19:35:00,59.9,25.0,29.68,North,0,0.0,0.0,26,0.00,,---,0.04,VWS V14.01,2013-05-18 02:35:00,
2013-05-17 19:40:00,59.9,25.0,29.68,North,0,0.0,0.0,26,0.00,,---,0.04,VWS V14.01,2013-05-18 02:40:00,
2013-05-17 19:46:00,59.4,25.4,29.68,North,0,0.0,0.0,27,0.00,,---,0.04,VWS V14.01,2013-05-18 02:46:00,
2013-05-17 19:51:00,59.2,25.2,29.68,North,0,0.0,0.0,27,0.00,,---,0.04,VWS V14.01,2013-05-18 02:51:00,
2013-05-17 19:56:00,59.0,26.0,29.68,North,0,0.0,0.0,28,0.00,,---,0.04,VWS V14.01,2013-05-18 02:56:00,
2013-05-17 20:02:00,58.6,26.5,29.68,North,0,0.0,0.0,29,0.00,,---,0.04,VWS V14.01,2013-05-18 03:02:00,
2013-05-17 20:07:00,58.5,26.3,29.68,North,0,0.0,0.0,29,0.00,,---,0.04,VWS V14.01,2013-05-18 03:07:00,
2013-05-17 20:13:00,58.3,27.8,29.68,North,0,0.0,0.0,31,0.00,,---,0.04,VWS V14.01,2013-05-18 03:13:00,
2013-05-17 20:18:00,58.1,27.6,29.71,North,0,0.0,0.0,31,0.00,,---,0.04,VWS V14.01,2013-05-18 03:18:00,
2013-05-17 20:24:00,57.9,28.3,29.71,North,0,0.0,0.0,32,0.00,,---,0.04,VWS V14.01,2013-05-18 03:24:00,
2013-05-17 20:30:00,57.7,28.9,29.71,North,0,0.0,0.0,33,0.00,,---,0.04,VWS V14.01,2013-05-18 03:30:00,
2013-05-17 20:35:00,57.7,28.9,29.71,North,0,0.0,0.0,33,0.00,,---,0.04,VWS V14.01,2013-05-18 03:35:00,
2013-05-17 20:40:00,57.6,28.7,29.71,North,0,0.0,0.0,33,0.00,,---,0.04,VWS V14.01,2013-05-18 03:40:00,
2013-05-17 20:45:00,57.4,29.3,29.71,North,0,0.0,0.0,34,0.00,,---,0.04,VWS V14.01,2013-05-18 03:45:00,
2013-05-17 20:51:00,57.4,29.3,29.71,North,0,0.0,0.0,34,0.00,,---,0.04,VWS V14.01,2013-05-18 03:51:00,
2013-05-17 20:56:00,57.2,29.8,29.71,North,0,0.0,0.0,35,0.00,,---,0.04,VWS V14.01,2013-05-18 03:56:00,
2013-05-17 21:01:00,57.2,29.8,29.71,North,0,0.0,0.0,35,0.00,,---,0.04,VWS V14.01,2013-05-18 04:01:00,
2013-05-17 21:04:00,57.0,29.7,29.71,North,0,0.0,0.0,35,0.00,,---,0.04,VWS V14.01,2013-05-18 04:04:00,
2013-05-17 21:05:00,57.0,29.7,29.71,North,0,0.0,0.0,35,0.00,,---,0.04,VWS V14.01,2013-05-18 04:05:00,
2013-05-17 21:06:00,57.0,29.7,29.71,North,0,0.0,0.0,35,0.00,,---,0.04,VWS V14.01,2013-05-18 04:06:00,
2013-05-17 21:12:00,56.8,29.5,29.71,North,0,0.0,0.0,35,0.00,,---,0.04,VWS V14.01,2013-05-18 04:12:00,
2013-05-17 21:13:00,56.8,29.5,29.71,North,0,0.0,0.0,35,0.00,,---,0.04,VWS V14.01,2013-05-18 04:13:00,
2013-05-17 21:18:00,56.8,29.5,29.68,North,0,0.0,0.0,35,0.00,,---,0.04,VWS V14.01,2013-05-18 04:18:00,
2013-05-17 21:23:00,56.7,30.0,29.68,North,0,0.0,0.0,36,0.00,,---,0.04,VWS V14.01,2013-05-18 04:23:00,
2013-05-17 21:29:00,56.5,29.9,29.71,North,0,0.0,0.0,36,0.00,,---,0.04,VWS V14.01,2013-05-18 04:29:00,
2013-05-17 21:35:00,56.3,29.7,29.71,North,0,0.0,0.0,36,0.00,,---,0.04,VWS V14.01,2013-05-18 04:35:00,
2013-05-17 21:40:00,56.3,30.4,29.71,North,0,0.0,0.0,37,0.00,,---,0.04,VWS V14.01,2013-05-18 04:40:00,
2013-05-17 21:46:00,56.1,30.2,29.71,North,0,0.0,0.0,37,0.00,,---,0.04,VWS V14.01,2013-05-18 04:46:00,
2013-05-17 21:51:00,55.9,30.7,29.71,North,0,0.0,0.0,38,0.00,,---,0.04,VWS V14.01,2013-05-18 04:51:00,
2013-05-17 21:57:00,55.8,30.6,29.71,North,0,0.0,0.0,38,0.00,,---,0.04,VWS V14.01,2013-05-18 04:57:00,
2013-05-17 22:02:00,55.6,30.4,29.71,North,0,0.0,0.0,38,0.00,,---,0.04,VWS V14.01,2013-05-18 05:02:00,
2013-05-17 22:08:00,55.4,30.2,29.71,North,0,0.0,0.0,38,0.00,,---,0.04,VWS V14.01,2013-05-18 05:08:00,
2013-05-17 22:13:00,55.2,30.7,29.71,North,0,0.0,0.0,39,0.00,,---,0.04,VWS V14.01,2013-05-18 05:13:00,
2013-05-17 22:19:00,55.2,30.1,29.71,North,0,0.0,0.0,38,0.00,,---,0.04,VWS V14.01,2013-05-18 05:19:00,
2013-05-17 22:25:00,55.2,29.4,29.71,North,0,0.0,0.0,37,0.00,,---,0.04,VWS V14.01,2013-05-18 05:25:00,
2013-05-17 22:30:00,55.0,29.9,29.71,North,0,0.0,0.0,38,0.00,,---,0.04,VWS V14.01,2013-05-18 05:30:00,
2013-05-17 22:35:00,54.9,29.8,29.71,North,0,0.0,0.0,38,0.00,,---,0.04,VWS V14.01,2013-05-18 05:35:00,
2013-05-17 22:41:00,54.7,29.6,29.71,North,0,0.0,0.0,38,0.00,,---,0.04,VWS V14.01,2013-05-18 05:41:00,
2013-05-17 22:46:00,54.5,29.4,29.71,North,0,0.0,0.0,38,0.00,,---,0.04,VWS V14.01,2013-05-18 05:46:00,
2013-05-17 22:52:00,54.5,29.4,29.71,North,0,0.0,0.0,38,0.00,,---,0.04,VWS V14.01,2013-05-18 05:52:00,
2013-05-17 22:58:00,54.3,28.6,29.71,North,0,0.0,0.0,37,0.00,,---,0.04,VWS V14.01,2013-05-18 05:58:00,
2013-05-17 23:03:00,54.3,28.6,29.74,North,0,0.0,0.0,37,0.00,,---,0.04,VWS V14.01,2013-05-18 06:03:00,
2013-05-17 23:09:00,54.1,28.5,29.74,North,0,0.0,0.0,37,0.00,,---,0.04,VWS V14.01,2013-05-18 06:09:00,
2013-05-17 23:15:00,54.0,28.3,29.74,North,0,0.0,0.0,37,0.00,,---,0.04,VWS V14.01,2013-05-18 06:15:00,
2013-05-17 23:21:00,54.0,28.3,29.74,North,0,0.0,0.0,37,0.00,,---,0.04,VWS V14.01,2013-05-18 06:21:00,
2013-05-17 23:26:00,53.8,28.1,29.74,North,0,0.0,0.0,37,0.00,,---,0.04,VWS V14.01,2013-05-18 06:26:00,
2013-05-17 23:32:00,53.6,28.0,29.74,North,0,0.0,0.0,37,0.00,,---,0.04,VWS V14.01,2013-05-18 06:32:00,
2013-05-17 23:38:00,53.4,27.8,29.74,North,0,0.0,0.0,37,0.00,,---,0.04,VWS V14.01,2013-05-18 06:38:00,
2013-05-17 23:43:00,53.2,27.7,29.74,North,0,0.0,0.0,37,0.00,,---,0.04,VWS V14.01,2013-05-18 06:43:00,
2013-05-17 23:48:00,53.2,27.7,29.74,North,0,0.0,0.0,37,0.00,,---,0.04,VWS V14.01,2013-05-18 06:48:00,
2013-05-17 23:54:00,53.2,27.7,29.74,North,0,0.0,0.0,37,0.00,,---,0.04,VWS V14.01,2013-05-18 06:54:00,